Terminal Aerodrome Forecast
Issued by NWS Cleveland, OH

Home | Current Version | Previous Version | Graphics & Text | Print | Product List | Glossary On
Versions: 1 2 3 4 5 6 7 8 9 10 11 12 13 14 15 16 17 18 19 20 21 22 23 24 25 26 27 28 29
000
FTUS41 KCLE 231500 AAB
TAFCLE
TAF AMD
KCLE 231500Z 2315/2418 11005KT P6SM SCT250
     FM231900 04008KT P6SM BKN200
     FM240300 14005KT P6SM BKN200
     FM241300 14008KT 6SM -SHRA BKN035 OVC060=

USA.gov is the U.S. government's official web portal to all federal, state and local government web resources and services.